createdAt,value
2023-03-31T00:00:58.392Z,99218.53
2023-03-31T00:02:23.150Z,99213.53
2023-03-31T00:03:51.501Z,99206.91
2023-03-31T00:05:18.444Z,99209.97
2023-03-31T00:06:43.799Z,99202.13
2023-03-31T00:08:04.992Z,99207.06
2023-03-31T00:09:30.244Z,99201.69
2023-03-31T00:11:00.512Z,99202.72
2023-03-31T00:12:23.788Z,99206.63
2023-03-31T00:13:55.490Z,99206.41
2023-03-31T00:15:18.267Z,99199.97
2023-03-31T00:16:43.102Z,99210.72
2023-03-31T00:18:33.532Z,99191.47
2023-03-31T00:20:00.999Z,99196.38
2023-03-31T00:21:29.914Z,99198.72
2023-03-31T00:22:54.787Z,99199.09
2023-03-31T00:24:26.093Z,99204.47
2023-03-31T00:25:48.010Z,99201.53
2023-03-31T00:27:15.911Z,99199.91
2023-03-31T00:28:43.211Z,99205.03
2023-03-31T00:30:12.919Z,99206.28
2023-03-31T00:31:39.187Z,99203.19
2023-03-31T00:33:01.949Z,99197.16
2023-03-31T00:34:30.234Z,99198.22
2023-03-31T00:36:03.733Z,99196.13
2023-03-31T00:37:28.810Z,99184.50
2023-03-31T00:38:56.815Z,99184.91
2023-03-31T00:40:21.945Z,99189.69
2023-03-31T00:41:47.297Z,99193.97
2023-03-31T00:43:25.520Z,99188.41
2023-03-31T00:45:23.229Z,99188.81
2023-03-31T00:46:52.623Z,99196.06
2023-03-31T00:48:23.181Z,99196.88
2023-03-31T00:49:55.626Z,99199.75
2023-03-31T00:51:24.006Z,99180.66
2023-03-31T00:52:51.532Z,99182.75
2023-03-31T00:54:13.342Z,99190.81
2023-03-31T00:55:44.852Z,99186.88
2023-03-31T00:57:10.435Z,99188.75
2023-03-31T00:58:35.127Z,99188.75
2023-03-31T01:00:07.435Z,99189.41
2023-03-31T01:01:44.315Z,99190.81
2023-03-31T01:03:10.519Z,99182.56
2023-03-31T01:04:39.606Z,99171.38
2023-03-31T01:06:12.780Z,99168.06
2023-03-31T01:07:42.682Z,99162.88
2023-03-31T01:09:10.523Z,99165.75
2023-03-31T01:10:41.802Z,99164.75
2023-03-31T01:12:12.474Z,99159.16
2023-03-31T01:13:50.074Z,99152.53
2023-03-31T01:15:34.435Z,99162.84
2023-03-31T01:17:07.221Z,99157.22
2023-03-31T01:18:44.318Z,99164.06
2023-03-31T01:20:23.182Z,99154.94
2023-03-31T01:22:20.075Z,99161.97
2023-03-31T01:24:19.686Z,99151.22
2023-03-31T01:26:30.245Z,99153.44
2023-03-31T01:28:08.551Z,99156.13
2023-03-31T01:29:52.412Z,99152.44
2023-03-31T01:34:00.603Z,99153.19
2023-03-31T01:35:39.110Z,99158.56
2023-03-31T01:37:30.241Z,99152.75
2023-03-31T01:39:17.495Z,99147.56
2023-03-31T01:40:59.108Z,99142.78
2023-03-31T01:42:32.686Z,99153.13
2023-03-31T01:44:08.468Z,99146.91
2023-03-31T01:45:46.738Z,99153.31
2023-03-31T01:47:21.225Z,99150.00
2023-03-31T01:49:00.946Z,99141.31
2023-03-31T01:50:36.458Z,99138.19
2023-03-31T01:52:06.800Z,99147.72
2023-03-31T01:53:40.676Z,99133.22
2023-03-31T01:55:10.872Z,99140.69
2023-03-31T01:56:51.208Z,99141.72
2023-03-31T01:58:21.813Z,99134.06
2023-03-31T01:59:54.474Z,99128.88
2023-03-31T02:01:23.698Z,99142.09
2023-03-31T02:02:50.932Z,99137.13
2023-03-31T02:04:27.718Z,99143.09
2023-03-31T02:05:54.517Z,99138.78
2023-03-31T02:07:21.194Z,99137.31
2023-03-31T02:08:48.089Z,99128.63
2023-03-31T02:10:18.456Z,99140.63
2023-03-31T02:11:51.928Z,99124.06
2023-03-31T02:13:19.185Z,99128.38
2023-03-31T02:14:46.696Z,99128.59
2023-03-31T02:16:14.667Z,99131.47
2023-03-31T02:17:42.667Z,99132.94
2023-03-31T02:19:14.518Z,99130.25
2023-03-31T02:20:39.714Z,99127.97
2023-03-31T02:22:07.072Z,99113.91
2023-03-31T02:23:35.084Z,99125.91
2023-03-31T02:25:05.338Z,99129.22
2023-03-31T02:26:35.424Z,99132.94
2023-03-31T02:28:07.107Z,99122.34
2023-03-31T02:29:31.594Z,99131.47
2023-03-31T02:31:17.045Z,99123.16
2023-03-31T02:32:49.735Z,99110.50
2023-03-31T02:34:18.350Z,99104.31
2023-03-31T02:35:39.845Z,99124.81
2023-03-31T02:37:14.738Z,99113.66
2023-03-31T02:38:47.672Z,99114.88
2023-03-31T02:40:31.043Z,99107.41
2023-03-31T02:42:02.515Z,99104.72
2023-03-31T02:43:42.558Z,99100.56
2023-03-31T02:45:09.150Z,99110.91
2023-03-31T02:46:54.914Z,99092.28
2023-03-31T02:48:20.633Z,99109.44
2023-03-31T02:50:06.487Z,99100.50
2023-03-31T02:52:09.264Z,99097.81
2023-03-31T02:53:52.647Z,99099.50
2023-03-31T02:55:37.761Z,99097.63
2023-03-31T02:57:36.248Z,99097.81
2023-03-31T02:59:27.356Z,99091.00
2023-03-31T03:01:13.568Z,99081.06
2023-03-31T03:02:54.796Z,99097.19
2023-03-31T03:05:11.863Z,99097.41
2023-03-31T03:06:54.181Z,99093.25
2023-03-31T03:08:30.970Z,99095.72
2023-03-31T03:10:02.601Z,99083.75
2023-03-31T03:11:48.510Z,99085.78
2023-03-31T03:13:28.115Z,99074.81
2023-03-31T03:15:04.098Z,99084.94
2023-03-31T03:16:48.384Z,99087.63
2023-03-31T03:18:10.825Z,99081.00
2023-03-31T03:19:34.911Z,99079.78
2023-03-31T03:20:59.304Z,99074.81
2023-03-31T03:22:23.447Z,99070.91
2023-03-31T03:23:52.113Z,99087.63
2023-03-31T03:25:18.517Z,99084.94
2023-03-31T03:26:40.431Z,99075.81
2023-03-31T03:28:04.364Z,99076.66
2023-03-31T03:29:31.110Z,99091.16
2023-03-31T03:30:58.457Z,99083.28
2023-03-31T03:32:23.446Z,99083.28
2023-03-31T03:33:45.772Z,99080.59
2023-03-31T03:35:11.481Z,99079.78
2023-03-31T03:36:40.688Z,99082.44
2023-03-31T03:38:09.670Z,99076.25
2023-03-31T03:39:39.653Z,99075.63
2023-03-31T03:41:10.031Z,99073.13
2023-03-31T03:42:38.414Z,99075.44
2023-03-31T03:44:05.377Z,99073.97
2023-03-31T03:45:31.638Z,99061.78
2023-03-31T03:47:01.789Z,99077.09
2023-03-31T03:48:27.304Z,99064.66
2023-03-31T03:49:50.736Z,99063.25
2023-03-31T03:51:13.302Z,99062.22
2023-03-31T03:52:50.274Z,99055.38
2023-03-31T03:54:18.728Z,99047.34
2023-03-31T03:55:49.183Z,99063.09
2023-03-31T03:57:11.536Z,99064.13
2023-03-31T03:58:37.240Z,99061.63
2023-03-31T04:00:11.333Z,99069.28
2023-03-31T04:01:33.243Z,99063.50
2023-03-31T04:02:57.590Z,99063.50
2023-03-31T04:04:20.875Z,99066.34
2023-03-31T04:05:50.125Z,99062.03
2023-03-31T04:07:17.170Z,99058.88
2023-03-31T04:08:45.641Z,99065.72
2023-03-31T04:10:17.370Z,99051.41
2023-03-31T04:11:43.908Z,99051.25
2023-03-31T04:13:16.293Z,99053.75
2023-03-31T04:14:46.216Z,99038.59
2023-03-31T04:16:14.526Z,99042.94
2023-03-31T04:17:42.677Z,99044.34
2023-03-31T04:19:13.239Z,99048.06
2023-03-31T04:20:45.668Z,99043.69
2023-03-31T04:22:07.023Z,99044.91
2023-03-31T04:23:29.712Z,99043.91
2023-03-31T04:24:52.968Z,99038.50
2023-03-31T04:26:18.302Z,99053.44
2023-03-31T04:27:51.111Z,99044.75
2023-03-31T04:29:21.957Z,99028.16
2023-03-31T04:30:50.105Z,99034.81
2023-03-31T04:32:27.640Z,99029.16
2023-03-31T04:33:58.073Z,99034.34
2023-03-31T04:35:25.331Z,99034.34
2023-03-31T04:36:51.126Z,99040.16
2023-03-31T04:38:18.791Z,99037.03
2023-03-31T04:39:50.165Z,99027.69
2023-03-31T04:41:13.498Z,99034.97
2023-03-31T04:42:38.852Z,99028.97
2023-03-31T04:44:06.803Z,99018.19
2023-03-31T04:45:36.384Z,99025.47
2023-03-31T04:47:07.163Z,99014.09
2023-03-31T04:48:32.107Z,99015.75
2023-03-31T04:49:55.679Z,99000.88
2023-03-31T04:52:00.742Z,99002.97
2023-03-31T04:53:32.100Z,99002.56
2023-03-31T04:55:01.026Z,99013.72
2023-03-31T04:56:38.725Z,98998.22
2023-03-31T04:58:01.834Z,99001.75
2023-03-31T04:59:24.585Z,99000.88
2023-03-31T05:00:48.831Z,99001.34
2023-03-31T05:02:16.013Z,99005.66
2023-03-31T05:03:46.671Z,99004.47
2023-03-31T05:05:12.683Z,98998.09
2023-03-31T05:06:42.762Z,99000.31
2023-03-31T05:08:21.355Z,98995.59
2023-03-31T05:09:47.553Z,98993.72
2023-03-31T05:11:25.438Z,98994.59
2023-03-31T05:13:12.391Z,98997.69
2023-03-31T05:15:00.565Z,98996.63
2023-03-31T05:16:31.548Z,99002.63
2023-03-31T05:18:08.677Z,99005.09
2023-03-31T05:19:44.295Z,99014.84
2023-03-31T05:21:38.743Z,99018.81
2023-03-31T05:23:01.378Z,99000.19
2023-03-31T05:24:28.541Z,99010.13
2023-03-31T05:25:49.888Z,99007.50
2023-03-31T05:27:15.280Z,99011.00
2023-03-31T05:28:37.214Z,99011.66
2023-03-31T05:30:29.920Z,99001.75
2023-03-31T05:31:54.073Z,99001.94
2023-03-31T05:33:16.749Z,98993.94
2023-03-31T05:34:39.002Z,99008.81
2023-03-31T05:36:01.896Z,98991.91
2023-03-31T05:37:24.428Z,98991.09
2023-03-31T05:38:47.829Z,98988.22
2023-03-31T05:40:11.726Z,98998.81
2023-03-31T05:41:33.887Z,98999.66
2023-03-31T05:42:56.052Z,98999.50
2023-03-31T05:44:20.851Z,98992.53
2023-03-31T05:45:43.094Z,98994.63
2023-03-31T05:47:07.064Z,98987.63
2023-03-31T05:48:29.480Z,98990.72
2023-03-31T05:49:52.201Z,98995.31
2023-03-31T05:51:17.649Z,98998.44
2023-03-31T05:52:39.794Z,98992.66
2023-03-31T05:54:02.113Z,98994.56
2023-03-31T05:55:27.632Z,98998.13
2023-03-31T05:56:50.394Z,98987.59
2023-03-31T05:58:12.599Z,98996.09
2023-03-31T05:59:35.706Z,98988.88
2023-03-31T06:01:07.571Z,98989.72
2023-03-31T06:02:30.142Z,98984.38
2023-03-31T06:04:18.893Z,98978.41
2023-03-31T06:05:55.317Z,98974.88
2023-03-31T06:07:47.684Z,98989.38
2023-03-31T06:09:52.898Z,98979.47
2023-03-31T06:11:40.893Z,98965.63
2023-03-31T06:13:05.111Z,98969.94
2023-03-31T06:14:49.873Z,98956.50
2023-03-31T06:18:43.510Z,98974.38
2023-03-31T06:20:16.353Z,98955.91
2023-03-31T06:21:49.255Z,98967.38
2023-03-31T06:23:13.888Z,98965.84
2023-03-31T06:24:39.212Z,98959.50
2023-03-31T06:26:06.515Z,98964.50
2023-03-31T06:27:32.518Z,98963.81
2023-03-31T06:28:54.918Z,98961.34
2023-03-31T06:30:32.704Z,98969.28
2023-03-31T06:31:55.201Z,98952.72
2023-03-31T06:33:17.886Z,98956.66
2023-03-31T06:34:40.579Z,98962.78
2023-03-31T06:36:05.715Z,98956.06
2023-03-31T06:37:28.247Z,98956.47
2023-03-31T06:38:52.158Z,98957.88
2023-03-31T06:40:14.824Z,98960.75
2023-03-31T06:41:38.900Z,98950.09
2023-03-31T06:43:02.210Z,98945.75
2023-03-31T06:44:24.770Z,98951.97
2023-03-31T06:45:52.420Z,98940.47
2023-03-31T06:47:15.772Z,98938.78
2023-03-31T06:48:37.340Z,98943.00
2023-03-31T06:49:59.744Z,98940.25
2023-03-31T06:51:22.005Z,98935.81
2023-03-31T06:52:44.357Z,98945.47
2023-03-31T06:54:06.938Z,98939.72
2023-03-31T06:55:29.029Z,98938.06
2023-03-31T06:56:51.123Z,98941.00
2023-03-31T06:58:15.231Z,98939.53
2023-03-31T06:59:41.196Z,98948.53
2023-03-31T07:01:04.935Z,98952.72
2023-03-31T07:02:30.935Z,98941.09
2023-03-31T07:03:53.190Z,98929.78
2023-03-31T07:05:16.809Z,98937.31
2023-03-31T07:06:41.450Z,98933.84
2023-03-31T07:08:03.348Z,98929.09
2023-03-31T07:09:25.295Z,98932.88
2023-03-31T07:10:49.015Z,98930.44
2023-03-31T07:12:11.616Z,98933.59
2023-03-31T07:13:38.323Z,98923.28
2023-03-31T07:15:00.562Z,98928.28
2023-03-31T07:16:23.833Z,98933.03
2023-03-31T07:17:46.047Z,98926.56
2023-03-31T07:19:13.345Z,98922.50
2023-03-31T07:20:38.295Z,98924.09
2023-03-31T07:22:00.773Z,98917.84
2023-03-31T07:23:23.004Z,98916.75
2023-03-31T07:24:45.135Z,98909.63
2023-03-31T07:26:08.009Z,98912.00
2023-03-31T07:27:30.614Z,98901.34
2023-03-31T07:28:56.687Z,98900.25
2023-03-31T07:30:20.856Z,98904.38
2023-03-31T07:31:43.031Z,98898.41
2023-03-31T07:33:05.389Z,98897.91
2023-03-31T07:34:28.028Z,98900.31
2023-03-31T07:36:00.301Z,98891.59
2023-03-31T07:37:36.834Z,98889.09
2023-03-31T07:38:59.501Z,98893.75
2023-03-31T07:40:25.311Z,98897.69
2023-03-31T07:41:47.572Z,98894.63
2023-03-31T07:43:10.024Z,98887.44
2023-03-31T07:44:37.133Z,98887.72
2023-03-31T07:45:59.400Z,98888.53
2023-03-31T07:47:21.647Z,98881.53
2023-03-31T07:48:44.091Z,98881.63
2023-03-31T07:50:07.696Z,98878.19
2023-03-31T07:51:30.108Z,98860.00
2023-03-31T07:52:52.973Z,98866.13
2023-03-31T07:54:14.985Z,98864.31
2023-03-31T07:57:20.426Z,98877.56
2023-03-31T07:58:42.841Z,98874.84
2023-03-31T08:00:08.679Z,98882.34
2023-03-31T08:01:37.012Z,98869.53
2023-03-31T08:02:59.275Z,98876.16
2023-03-31T08:04:21.642Z,98868.41
2023-03-31T08:05:43.873Z,98858.59
2023-03-31T08:07:06.566Z,98853.00
2023-03-31T08:08:28.754Z,98865.13
2023-03-31T08:09:53.893Z,98864.75
2023-03-31T08:11:15.891Z,98865.28
2023-03-31T08:12:37.978Z,98873.16
2023-03-31T08:14:00.287Z,98867.94
2023-03-31T08:15:25.865Z,98864.84
2023-03-31T08:16:48.089Z,98870.69
2023-03-31T08:18:09.748Z,98869.56
2023-03-31T08:19:31.636Z,98874.19
2023-03-31T08:20:53.788Z,98870.97
2023-03-31T08:22:17.901Z,98867.06
2023-03-31T08:23:40.059Z,98861.84
2023-03-31T08:25:02.395Z,98858.53
2023-03-31T08:26:25.717Z,98855.03
2023-03-31T08:27:51.004Z,98851.09
2023-03-31T08:29:13.303Z,98847.31
2023-03-31T08:30:41.487Z,98845.94
2023-03-31T08:32:03.838Z,98841.09
2023-03-31T08:33:26.204Z,98833.72
2023-03-31T08:34:48.343Z,98838.66
2023-03-31T08:36:11.858Z,98832.97
2023-03-31T08:37:35.741Z,98824.88
2023-03-31T08:38:58.243Z,98819.69
2023-03-31T08:40:23.958Z,98827.09
2023-03-31T08:41:56.333Z,98819.69
2023-03-31T08:43:24.595Z,98825.22
2023-03-31T08:44:51.497Z,98821.72
2023-03-31T08:46:17.206Z,98824.09
2023-03-31T08:47:41.798Z,98819.06
2023-03-31T08:49:06.102Z,98821.66
2023-03-31T08:50:31.947Z,98823.44
2023-03-31T08:51:57.818Z,98810.13
2023-03-31T08:53:25.266Z,98814.00
2023-03-31T08:54:50.872Z,98810.75
2023-03-31T08:56:18.490Z,98810.03
2023-03-31T08:57:56.220Z,98804.63
2023-03-31T08:59:26.347Z,98809.81
2023-03-31T09:00:58.686Z,98805.34
2023-03-31T09:02:33.808Z,98800.06
2023-03-31T09:04:27.346Z,98793.91
2023-03-31T09:06:12.994Z,98791.38
2023-03-31T09:07:42.432Z,98790.84
2023-03-31T09:09:08.670Z,98790.19
2023-03-31T09:10:39.836Z,98794.47
2023-03-31T09:12:08.078Z,98799.69
2023-03-31T09:13:58.485Z,98792.41
2023-03-31T09:15:27.626Z,98788.75
2023-03-31T09:17:01.068Z,98784.31
2023-03-31T09:18:31.949Z,98769.53
2023-03-31T09:19:59.045Z,98771.75
2023-03-31T09:21:27.693Z,98768.13
2023-03-31T09:22:54.588Z,98772.63
2023-03-31T09:24:21.838Z,98762.13
2023-03-31T09:25:45.840Z,98768.88
2023-03-31T09:27:12.797Z,98776.09
2023-03-31T09:28:39.821Z,98775.50
2023-03-31T09:30:07.137Z,98770.38
2023-03-31T09:31:29.987Z,98781.00
2023-03-31T09:32:56.833Z,98760.47
2023-03-31T09:34:27.100Z,98758.59
2023-03-31T09:35:51.434Z,98762.28
2023-03-31T09:37:17.898Z,98765.28
2023-03-31T09:38:40.262Z,98767.72
2023-03-31T09:40:08.119Z,98760.38
2023-03-31T09:41:32.412Z,98757.59
2023-03-31T09:42:59.443Z,98752.03
2023-03-31T09:44:27.791Z,98750.25
2023-03-31T09:46:07.673Z,98749.09
2023-03-31T09:47:39.293Z,98742.19
2023-03-31T09:49:06.879Z,98751.25
2023-03-31T09:50:33.161Z,98760.03
2023-03-31T09:52:04.890Z,98749.84
2023-03-31T09:53:36.263Z,98742.88
2023-03-31T09:55:25.198Z,98745.72
2023-03-31T09:56:54.919Z,98741.06
2023-03-31T09:58:23.263Z,98737.75
2023-03-31T09:59:46.609Z,98742.84
2023-03-31T10:01:16.388Z,98747.66
2023-03-31T10:03:48.916Z,98727.06
2023-03-31T10:05:24.130Z,98732.84
2023-03-31T10:06:52.671Z,98738.88
2023-03-31T10:08:33.625Z,98731.81
2023-03-31T10:10:01.189Z,98725.59
2023-03-31T10:11:30.702Z,98717.97
2023-03-31T10:13:04.097Z,98724.81
2023-03-31T10:14:37.592Z,98719.09
2023-03-31T10:16:16.315Z,98710.38
2023-03-31T10:17:54.774Z,98719.91
2023-03-31T10:19:36.839Z,98708.47
2023-03-31T10:21:13.985Z,98689.66
2023-03-31T10:23:15.559Z,98694.50
2023-03-31T10:31:06.807Z,98676.88
2023-03-31T10:36:31.728Z,98682.97
2023-03-31T10:38:52.204Z,98681.72
2023-03-31T10:40:22.680Z,98682.53
2023-03-31T10:41:52.468Z,98674.38
2023-03-31T10:43:22.482Z,98668.91
2023-03-31T10:44:47.285Z,98654.19
2023-03-31T10:46:17.279Z,98672.47
2023-03-31T10:47:42.182Z,98668.09
2023-03-31T10:49:42.056Z,98659.63
2023-03-31T10:51:14.611Z,98665.63
2023-03-31T10:52:46.988Z,98664.25
2023-03-31T10:54:18.646Z,98659.34
2023-03-31T10:55:54.679Z,98666.47
2023-03-31T10:57:19.197Z,98659.34
2023-03-31T10:59:05.412Z,98651.19
2023-03-31T11:00:36.604Z,98646.75
2023-03-31T11:02:24.520Z,98635.25
2023-03-31T11:04:34.994Z,98637.31
2023-03-31T11:06:30.743Z,98639.00
2023-03-31T11:08:28.645Z,98637.81
2023-03-31T11:10:36.656Z,98623.81
2023-03-31T11:12:09.293Z,98615.47
2023-03-31T11:15:48.592Z,98612.91
2023-03-31T11:17:27.921Z,98616.25
2023-03-31T11:19:13.068Z,98603.44
2023-03-31T11:20:44.671Z,98596.06
2023-03-31T11:22:13.979Z,98606.06
2023-03-31T11:23:43.460Z,98595.81
2023-03-31T11:25:21.560Z,98593.38
2023-03-31T11:26:56.214Z,98589.75
2023-03-31T11:28:39.307Z,98584.00
2023-03-31T11:30:07.848Z,98586.22
2023-03-31T11:31:47.938Z,98583.00
2023-03-31T11:33:49.944Z,98577.28
2023-03-31T11:35:35.751Z,98569.31
2023-03-31T11:37:27.629Z,98571.38
2023-03-31T11:39:17.531Z,98571.94
2023-03-31T11:40:58.965Z,98554.31
2023-03-31T11:42:30.696Z,98554.63
2023-03-31T11:44:10.111Z,98557.63
2023-03-31T11:45:40.381Z,98547.53
2023-03-31T11:47:07.893Z,98554.09
2023-03-31T11:48:56.844Z,98551.13
2023-03-31T11:50:24.713Z,98556.41
2023-03-31T11:51:54.007Z,98546.44
2023-03-31T11:53:23.048Z,98552.50
2023-03-31T11:54:53.514Z,98559.59
2023-03-31T11:56:20.873Z,98548.44
2023-03-31T11:57:56.351Z,98524.75
2023-03-31T11:59:22.998Z,98519.03
2023-03-31T12:01:06.445Z,98526.44
2023-03-31T12:02:38.130Z,98526.75
2023-03-31T12:04:03.224Z,98527.59
2023-03-31T12:05:32.300Z,98524.34
2023-03-31T12:07:02.402Z,98520.78
2023-03-31T12:09:29.381Z,98516.25
2023-03-31T12:10:57.987Z,98519.00
2023-03-31T12:12:31.624Z,98518.22
2023-03-31T12:13:58.403Z,98529.69
2023-03-31T12:15:27.102Z,98526.72
2023-03-31T12:16:59.778Z,98513.44
2023-03-31T12:18:28.245Z,98535.81
2023-03-31T12:19:53.792Z,98533.38
2023-03-31T12:21:27.886Z,98530.13
2023-03-31T12:22:53.192Z,98516.25
2023-03-31T12:24:19.706Z,98504.00
2023-03-31T12:25:55.500Z,98517.09
2023-03-31T12:27:29.630Z,98513.25
2023-03-31T12:29:06.227Z,98507.81
2023-03-31T12:30:45.230Z,98499.94
2023-03-31T12:32:20.249Z,98502.91
2023-03-31T12:33:55.313Z,98501.25
2023-03-31T12:35:27.444Z,98500.69
2023-03-31T12:37:13.165Z,98503.41
2023-03-31T12:38:52.144Z,98498.75
2023-03-31T12:40:38.070Z,98493.81
2023-03-31T12:42:40.932Z,98483.19
2023-03-31T12:44:37.353Z,98491.88
2023-03-31T12:46:18.005Z,98488.00
2023-03-31T12:48:10.509Z,98484.72
2023-03-31T12:49:47.478Z,98486.00
2023-03-31T12:51:54.472Z,98480.75
2023-03-31T12:55:37.612Z,98473.94
2023-03-31T12:57:23.344Z,98459.56
2023-03-31T12:58:48.502Z,98462.56
2023-03-31T13:00:27.045Z,98461.81
2023-03-31T13:02:21.704Z,98462.69
2023-03-31T13:03:53.123Z,98452.09
2023-03-31T13:05:48.970Z,98457.59
2023-03-31T13:07:34.894Z,98457.06
2023-03-31T13:09:02.670Z,98459.53
2023-03-31T13:10:30.886Z,98455.75
2023-03-31T13:11:53.260Z,98445.13
2023-03-31T13:13:17.791Z,98446.22
2023-03-31T13:14:43.708Z,98447.84
2023-03-31T13:16:05.926Z,98446.75
2023-03-31T13:17:38.323Z,98450.31
2023-03-31T13:19:11.937Z,98454.38
2023-03-31T13:20:37.910Z,98444.03
2023-03-31T13:22:01.851Z,98450.28
2023-03-31T13:23:26.027Z,98447.25
2023-03-31T13:24:47.252Z,98439.03
2023-03-31T13:26:39.573Z,98436.25
2023-03-31T13:28:13.964Z,98436.75
2023-03-31T13:29:43.194Z,98441.03
2023-03-31T13:31:06.454Z,98435.56
2023-03-31T13:32:29.358Z,98433.31
2023-03-31T13:33:58.587Z,98425.13
2023-03-31T13:35:29.980Z,98423.72
2023-03-31T13:37:08.946Z,98425.56
2023-03-31T13:38:46.403Z,98428.50
2023-03-31T13:40:22.699Z,98413.25
2023-03-31T13:41:56.483Z,98410.81
2023-03-31T13:43:46.170Z,98410.78
2023-03-31T13:45:21.148Z,98399.34
2023-03-31T13:47:17.960Z,98400.97
2023-03-31T13:49:07.686Z,98399.59
2023-03-31T13:50:48.604Z,98403.03
2023-03-31T13:52:12.692Z,98392.63
2023-03-31T13:53:51.460Z,98388.78
2023-03-31T13:55:57.930Z,98384.03
2023-03-31T13:57:56.461Z,98383.38
2023-03-31T13:59:49.778Z,98371.03
2023-03-31T14:01:47.352Z,98370.91
2023-03-31T14:03:26.770Z,98372.97
2023-03-31T14:05:15.718Z,98371.00
2023-03-31T14:06:43.186Z,98367.66
2023-03-31T14:08:13.078Z,98356.19
2023-03-31T14:09:41.394Z,98341.97
2023-03-31T14:11:18.929Z,98356.84
2023-03-31T14:12:41.486Z,98351.59
2023-03-31T14:14:06.378Z,98351.25
2023-03-31T14:15:32.954Z,98349.47
2023-03-31T14:16:58.606Z,98343.69
2023-03-31T14:18:33.337Z,98334.00
2023-03-31T14:20:17.371Z,98332.81
2023-03-31T14:21:49.620Z,98327.81
2023-03-31T14:23:20.486Z,98340.53
2023-03-31T14:24:53.952Z,98330.59
2023-03-31T14:26:32.725Z,98330.34
2023-03-31T14:28:06.706Z,98321.47
2023-03-31T14:29:38.651Z,98328.50
2023-03-31T14:31:13.761Z,98326.06
2023-03-31T14:32:46.065Z,98311.84
2023-03-31T14:34:31.274Z,98314.22
2023-03-31T14:36:01.968Z,98318.50
2023-03-31T14:37:31.078Z,98317.28
2023-03-31T14:38:53.144Z,98314.28
2023-03-31T14:40:18.528Z,98316.31
2023-03-31T14:41:44.716Z,98305.84
2023-03-31T14:43:35.310Z,98310.34
2023-03-31T14:44:59.274Z,98302.09
2023-03-31T14:46:22.622Z,98301.75
2023-03-31T14:47:54.382Z,98305.75
2023-03-31T14:49:23.747Z,98298.16
2023-03-31T14:50:48.084Z,98289.47
2023-03-31T14:52:19.723Z,98284.72
2023-03-31T14:53:43.680Z,98286.50
2023-03-31T14:55:06.997Z,98281.91
2023-03-31T14:56:35.032Z,98282.69
2023-03-31T14:58:00.714Z,98290.19
2023-03-31T14:59:27.783Z,98286.03
2023-03-31T15:00:50.302Z,98288.16
2023-03-31T15:02:18.352Z,98284.47
2023-03-31T15:04:39.535Z,98265.56
2023-03-31T15:06:13.251Z,98268.38
2023-03-31T15:07:38.660Z,98259.97
2023-03-31T15:09:05.548Z,98274.69
2023-03-31T15:10:34.783Z,98271.66
2023-03-31T15:12:12.888Z,98270.53
2023-03-31T15:13:37.104Z,98276.56
2023-03-31T15:15:06.429Z,98283.69
2023-03-31T15:16:43.437Z,98268.75
2023-03-31T15:18:08.771Z,98281.28
2023-03-31T15:19:37.805Z,98275.22
2023-03-31T15:21:00.319Z,98267.28
2023-03-31T15:22:26.278Z,98261.19
2023-03-31T15:23:48.427Z,98271.13
2023-03-31T15:25:16.938Z,98278.94
2023-03-31T15:26:44.130Z,98270.16
2023-03-31T15:28:08.622Z,98277.97
2023-03-31T15:29:39.364Z,98267.91
2023-03-31T15:32:47.330Z,98270.91
2023-03-31T15:34:28.029Z,98265.25
2023-03-31T15:35:50.831Z,98269.59
2023-03-31T15:37:13.105Z,98274.69
2023-03-31T15:38:36.153Z,98271.13
2023-03-31T15:40:00.761Z,98261.84
2023-03-31T15:43:01.683Z,98256.63
2023-03-31T15:44:39.123Z,98256.81
2023-03-31T15:46:03.443Z,98256.25
2023-03-31T15:47:30.767Z,98240.50
2023-03-31T15:49:02.457Z,98248.06
2023-03-31T15:50:31.217Z,98252.91
2023-03-31T15:51:54.399Z,98246.13
2023-03-31T15:53:39.048Z,98247.09
2023-03-31T15:55:38.370Z,98251.69
2023-03-31T15:57:03.970Z,98252.22
2023-03-31T15:58:49.500Z,98257.84
2023-03-31T16:00:47.556Z,98249.94
2023-03-31T16:02:13.366Z,98242.00
2023-03-31T16:03:38.854Z,98245.50
2023-03-31T16:05:03.014Z,98242.97
2023-03-31T16:06:36.518Z,98238.81
2023-03-31T16:08:00.033Z,98246.09
2023-03-31T16:09:28.055Z,98251.28
2023-03-31T16:11:00.324Z,98246.38
2023-03-31T16:12:24.558Z,98244.06
2023-03-31T16:13:51.611Z,98252.44
2023-03-31T16:15:17.614Z,98249.09
2023-03-31T16:16:47.134Z,98240.81
2023-03-31T16:18:20.402Z,98242.69
2023-03-31T16:19:48.917Z,98250.78
2023-03-31T16:21:13.122Z,98251.56
2023-03-31T16:22:40.832Z,98245.47
2023-03-31T16:24:05.653Z,98245.94
2023-03-31T16:25:30.228Z,98253.00
2023-03-31T16:26:52.649Z,98243.72
2023-03-31T16:28:19.826Z,98244.00
2023-03-31T16:29:44.274Z,98235.78
2023-03-31T16:31:07.037Z,98239.91
2023-03-31T16:32:30.871Z,98230.72
2023-03-31T16:33:57.855Z,98225.31
2023-03-31T16:35:20.032Z,98235.13
2023-03-31T16:36:42.997Z,98227.94
2023-03-31T16:38:05.195Z,98229.34
2023-03-31T16:39:28.926Z,98228.03
2023-03-31T16:40:54.751Z,98224.25
2023-03-31T16:42:26.099Z,98218.03
2023-03-31T16:43:49.666Z,98219.13
2023-03-31T16:45:14.952Z,98212.53
2023-03-31T16:46:37.774Z,98207.06
2023-03-31T16:48:12.869Z,98199.69
2023-03-31T16:49:38.248Z,98202.38
2023-03-31T16:51:04.156Z,98201.56
2023-03-31T16:52:26.752Z,98202.63
2023-03-31T16:53:49.526Z,98197.72
2023-03-31T16:55:10.577Z,98197.56
2023-03-31T16:56:32.971Z,98184.03
2023-03-31T16:57:55.727Z,98183.22
2023-03-31T16:59:17.814Z,98186.16
2023-03-31T17:00:40.379Z,98192.00
2023-03-31T17:02:02.413Z,98190.34
2023-03-31T17:03:30.462Z,98194.53
2023-03-31T17:04:56.722Z,98186.31
2023-03-31T17:06:22.285Z,98184.28
2023-03-31T17:07:44.942Z,98191.00
2023-03-31T17:09:08.974Z,98184.66
2023-03-31T17:10:33.757Z,98185.06
2023-03-31T17:11:57.357Z,98187.19
2023-03-31T17:13:20.120Z,98187.84
2023-03-31T17:14:42.328Z,98181.53
2023-03-31T17:17:38.274Z,98191.88
2023-03-31T17:19:49.286Z,98194.50
2023-03-31T17:21:40.309Z,98190.88
2023-03-31T17:24:00.219Z,98192.19
2023-03-31T17:25:33.293Z,98190.19
2023-03-31T17:29:48.132Z,98188.72
2023-03-31T17:31:15.104Z,98178.63
2023-03-31T17:32:57.661Z,98189.78
2023-03-31T17:34:51.072Z,98178.53
2023-03-31T17:38:46.026Z,98171.50
2023-03-31T17:40:37.573Z,98172.81
2023-03-31T17:43:13.612Z,98170.81
2023-03-31T17:44:47.055Z,98170.47
2023-03-31T17:46:38.061Z,98167.63
2023-03-31T17:48:07.977Z,98178.78
2023-03-31T17:49:55.024Z,98175.59
2023-03-31T17:52:00.466Z,98168.00
2023-03-31T17:53:40.533Z,98185.22
2023-03-31T17:57:32.662Z,98178.53
2023-03-31T17:59:31.514Z,98189.31
2023-03-31T18:06:13.925Z,98187.31
2023-03-31T18:10:02.743Z,98209.84
2023-03-31T18:12:18.727Z,98197.91
2023-03-31T18:14:29.594Z,98197.53
2023-03-31T18:17:11.465Z,98202.22
2023-03-31T18:24:44.960Z,98195.28
2023-03-31T18:26:07.855Z,98198.25
2023-03-31T18:27:30.129Z,98199.88
2023-03-31T18:28:51.463Z,98202.81
2023-03-31T18:30:17.084Z,98202.81
2023-03-31T18:31:39.335Z,98195.19
2023-03-31T18:33:01.949Z,98205.75
2023-03-31T18:34:27.465Z,98198.47
2023-03-31T18:35:50.027Z,98194.16
2023-03-31T18:37:12.842Z,98201.16
2023-03-31T18:38:37.188Z,98201.97
2023-03-31T18:40:01.857Z,98192.03
2023-03-31T18:41:27.153Z,98194.97
2023-03-31T18:42:49.669Z,98200.13
2023-03-31T18:44:17.233Z,98188.16